createdAt,value
2022-10-05T00:01:28.647Z,10.00
2022-10-05T00:04:23.986Z,7.95
2022-10-05T00:07:09.321Z,6.88
2022-10-05T00:09:45.993Z,7.53
2022-10-05T00:12:21.989Z,9.75
2022-10-05T00:15:01.119Z,9.35
2022-10-05T00:17:33.617Z,9.10
2022-10-05T00:20:26.818Z,10.82
2022-10-05T00:23:07.444Z,12.63
2022-10-05T00:25:39.966Z,8.73
2022-10-05T00:28:27.662Z,14.27
2022-10-05T00:31:01.017Z,13.00
2022-10-05T00:33:33.486Z,8.35
2022-10-05T00:36:07.459Z,11.80
2022-10-05T00:38:41.256Z,8.98
2022-10-05T00:41:30.276Z,9.43
2022-10-05T00:44:35.162Z,8.02
2022-10-05T00:47:43.637Z,9.48
2022-10-05T00:50:54.066Z,8.88
2022-10-05T00:53:54.534Z,7.97
2022-10-05T00:57:15.426Z,8.93
2022-10-05T01:02:49.027Z,8.00
2022-10-05T01:05:45.897Z,10.90
2022-10-05T01:09:02.706Z,9.35
2022-10-05T01:11:50.786Z,6.50
2022-10-05T01:14:45.686Z,12.05
2022-10-05T01:17:40.032Z,9.75
2022-10-05T01:20:27.373Z,9.00
2022-10-05T01:23:14.686Z,11.68
2022-10-05T01:26:31.025Z,11.20
2022-10-05T01:29:34.520Z,10.10
2022-10-05T01:32:41.631Z,8.60
2022-10-05T01:35:47.289Z,8.95
2022-10-05T01:38:35.365Z,9.07
2022-10-05T01:41:19.562Z,11.50
2022-10-05T01:44:01.589Z,9.75
2022-10-05T01:46:56.685Z,7.43
2022-10-05T01:52:53.904Z,6.88
2022-10-05T01:55:48.851Z,11.20
2022-10-05T01:58:55.508Z,10.63
2022-10-05T02:01:44.146Z,6.88
2022-10-05T02:05:05.983Z,7.30
2022-10-05T02:07:40.249Z,9.23
2022-10-05T02:10:28.906Z,14.52
2022-10-05T02:13:47.970Z,8.52
2022-10-05T02:16:38.214Z,10.15
2022-10-05T02:19:46.292Z,8.10
2022-10-05T02:22:30.616Z,9.65
2022-10-05T02:25:14.006Z,8.55
2022-10-05T02:27:59.988Z,9.27
2022-10-05T02:30:41.966Z,9.45
2022-10-05T02:33:28.452Z,8.20
2022-10-05T02:36:23.741Z,7.22
2022-10-05T02:39:20.908Z,10.63
2022-10-05T02:42:23.687Z,7.80
2022-10-05T02:45:26.234Z,6.47
2022-10-05T02:48:45.540Z,7.82
2022-10-05T02:51:50.213Z,9.43
2022-10-05T02:54:58.532Z,9.60
2022-10-05T02:58:07.843Z,10.50
2022-10-05T03:01:16.526Z,7.05
2022-10-05T03:04:21.615Z,8.05
2022-10-05T03:07:32.814Z,7.78
2022-10-05T03:10:29.499Z,10.30
2022-10-05T03:13:26.093Z,11.07
2022-10-05T03:16:32.832Z,7.07
2022-10-05T03:19:37.038Z,7.38
2022-10-05T03:22:32.768Z,9.15
2022-10-05T03:25:17.970Z,7.68
2022-10-05T03:28:08.814Z,8.52
2022-10-05T03:31:02.198Z,9.23
2022-10-05T03:33:59.489Z,6.68
2022-10-05T03:36:46.460Z,5.90
2022-10-05T03:39:36.925Z,6.28
2022-10-05T03:42:59.050Z,8.02
2022-10-05T03:45:48.680Z,8.60
2022-10-05T03:48:37.661Z,7.13
2022-10-05T03:51:23.544Z,5.82
2022-10-05T03:54:49.098Z,8.50
2022-10-05T03:57:29.662Z,6.68
2022-10-05T04:00:16.002Z,9.07
2022-10-05T04:03:02.187Z,7.40
2022-10-05T04:06:33.402Z,8.23
2022-10-05T04:09:27.618Z,9.70
2022-10-05T04:12:35.908Z,8.90
2022-10-05T04:15:23.717Z,8.98
2022-10-05T04:18:26.948Z,10.20
2022-10-05T04:21:23.479Z,10.68
2022-10-05T04:24:11.973Z,9.65
2022-10-05T04:27:06.063Z,10.02
2022-10-05T04:29:57.094Z,10.50
2022-10-05T04:32:53.661Z,10.77
2022-10-05T04:36:02.249Z,7.97
2022-10-05T04:38:54.947Z,12.48
2022-10-05T04:42:13.100Z,10.45
2022-10-05T04:45:36.280Z,8.82
2022-10-05T04:48:44.582Z,9.63
2022-10-05T04:55:07.987Z,8.55
2022-10-05T04:58:09.557Z,5.53
2022-10-05T05:04:26.184Z,7.75
2022-10-05T05:07:14.133Z,6.93
2022-10-05T05:10:10.773Z,9.98
2022-10-05T05:13:24.552Z,6.70
2022-10-05T05:16:07.451Z,7.95
2022-10-05T05:19:16.317Z,7.25
2022-10-05T05:22:04.178Z,5.28
2022-10-05T05:25:14.098Z,7.53
2022-10-05T05:28:38.356Z,8.25
2022-10-05T05:31:58.362Z,8.13
2022-10-05T05:35:43.957Z,6.47
2022-10-05T05:38:47.002Z,7.10
2022-10-05T05:41:40.965Z,5.38
2022-10-05T05:44:29.215Z,7.97
2022-10-05T05:47:07.767Z,7.53
2022-10-05T05:50:18.251Z,5.53
2022-10-05T05:52:58.650Z,6.78
2022-10-05T05:56:04.477Z,5.60
2022-10-05T05:59:17.697Z,4.80
2022-10-05T06:02:06.039Z,5.07
2022-10-05T06:04:47.984Z,5.07
2022-10-05T06:07:30.750Z,5.57
2022-10-05T06:10:21.622Z,7.93
2022-10-05T06:13:03.177Z,5.15
2022-10-05T06:15:49.443Z,5.03
2022-10-05T06:18:23.337Z,4.47
2022-10-05T06:21:11.523Z,4.35
2022-10-05T06:24:01.174Z,3.97
2022-10-05T06:27:24.451Z,5.47
2022-10-05T06:30:15.777Z,5.03
2022-10-05T06:33:19.652Z,7.60
2022-10-05T06:36:14.784Z,8.40
2022-10-05T06:42:20.048Z,4.00
2022-10-05T06:45:28.844Z,5.38
2022-10-05T06:48:35.343Z,6.30
2022-10-05T06:51:23.491Z,8.10
2022-10-05T06:54:19.868Z,5.03
2022-10-05T06:57:09.190Z,4.82
2022-10-05T07:00:07.369Z,5.10
2022-10-05T07:03:27.206Z,5.30
2022-10-05T07:06:14.192Z,4.75
2022-10-05T07:09:33.123Z,3.95
2022-10-05T07:12:53.807Z,6.80
2022-10-05T07:15:42.103Z,6.40
2022-10-05T07:19:10.077Z,6.20
2022-10-05T07:22:08.937Z,4.03
2022-10-05T07:25:19.074Z,7.22
2022-10-05T07:28:20.040Z,4.82
2022-10-05T07:31:03.731Z,4.07
2022-10-05T07:33:46.193Z,4.80
2022-10-05T07:36:45.144Z,4.18
2022-10-05T07:39:59.222Z,4.72
2022-10-05T07:42:51.802Z,5.65
2022-10-05T07:45:47.872Z,3.17
2022-10-05T07:48:43.289Z,4.78
2022-10-05T07:51:35.089Z,4.47
2022-10-05T07:54:49.178Z,9.43
2022-10-05T07:58:00.549Z,4.53
2022-10-05T08:00:49.240Z,8.50
2022-10-05T08:03:54.929Z,6.93
2022-10-05T08:06:57.117Z,5.53
2022-10-05T08:09:59.414Z,7.00
2022-10-05T08:12:53.467Z,3.55
2022-10-05T08:15:35.368Z,5.22
2022-10-05T08:19:08.356Z,3.42
2022-10-05T08:21:55.423Z,6.65
2022-10-05T08:24:45.741Z,5.55
2022-10-05T08:27:52.346Z,4.55
2022-10-05T08:30:25.038Z,4.93
2022-10-05T08:33:14.699Z,3.58
2022-10-05T08:36:10.638Z,3.13
2022-10-05T08:38:43.901Z,4.25
2022-10-05T08:41:58.225Z,4.78
2022-10-05T08:44:49.755Z,4.38
2022-10-05T08:48:07.787Z,5.82
2022-10-05T08:51:22.601Z,3.13
2022-10-05T08:54:35.645Z,4.55
2022-10-05T08:57:46.781Z,5.25
2022-10-05T09:00:51.855Z,7.15
2022-10-05T09:04:16.694Z,5.55
2022-10-05T09:07:07.392Z,4.82
2022-10-05T09:10:20.532Z,5.43
2022-10-05T09:13:25.059Z,6.80
2022-10-05T09:16:06.639Z,4.80
2022-10-05T09:19:06.231Z,3.78
2022-10-05T09:21:43.548Z,3.17
2022-10-05T09:25:12.330Z,3.53
2022-10-05T09:28:18.697Z,6.28
2022-10-05T09:31:06.391Z,6.25
2022-10-05T09:34:19.783Z,5.70
2022-10-05T09:37:07.396Z,7.25
2022-10-05T09:40:35.302Z,4.95
2022-10-05T09:43:17.849Z,5.68
2022-10-05T09:46:17.632Z,6.85
2022-10-05T09:49:19.232Z,2.88
2022-10-05T09:52:41.034Z,4.68
2022-10-05T09:56:15.285Z,3.58
2022-10-05T09:59:18.855Z,3.97
2022-10-05T10:02:23.208Z,3.28
2022-10-05T10:05:29.965Z,7.15
2022-10-05T10:08:39.665Z,4.57
2022-10-05T10:11:43.003Z,3.60
2022-10-05T10:15:07.628Z,4.05
2022-10-05T10:18:02.179Z,3.67
2022-10-05T10:21:20.802Z,2.53
2022-10-05T10:24:16.982Z,6.65
2022-10-05T10:27:16.670Z,4.97
2022-10-05T10:30:05.535Z,3.75
2022-10-05T10:33:15.799Z,2.55
2022-10-05T10:36:21.717Z,3.70
2022-10-05T10:39:25.803Z,3.05
2022-10-05T10:43:16.017Z,2.35
2022-10-05T10:46:29.843Z,3.05
2022-10-05T10:49:47.787Z,5.18
2022-10-05T10:52:35.728Z,3.47
2022-10-05T10:55:46.628Z,3.08
2022-10-05T10:59:17.379Z,8.07
2022-10-05T11:02:33.289Z,3.58
2022-10-05T11:05:37.229Z,3.17
2022-10-05T11:09:03.727Z,2.35
2022-10-05T11:12:05.610Z,2.00
2022-10-05T11:14:58.535Z,3.65
2022-10-05T11:17:51.856Z,1.65
2022-10-05T11:20:38.002Z,4.03
2022-10-05T11:24:05.973Z,3.90
2022-10-05T11:27:16.133Z,3.72
2022-10-05T11:30:38.565Z,4.53
2022-10-05T11:34:13.597Z,2.85
2022-10-05T11:37:56.303Z,4.82
2022-10-05T11:41:10.657Z,2.55
2022-10-05T11:44:11.252Z,3.28
2022-10-05T11:47:00.867Z,2.45
2022-10-05T11:50:05.447Z,3.88
2022-10-05T11:53:11.148Z,3.15
2022-10-05T11:56:03.725Z,2.55
2022-10-05T11:58:54.591Z,2.72
2022-10-05T12:01:44.714Z,1.48
2022-10-05T12:04:36.652Z,2.50
2022-10-05T12:07:36.069Z,3.58
2022-10-05T12:10:44.550Z,1.35
2022-10-05T12:13:38.052Z,1.80
2022-10-05T12:16:44.239Z,5.35
2022-10-05T12:19:29.377Z,2.67
2022-10-05T12:22:37.406Z,5.03
2022-10-05T12:25:25.674Z,2.35
2022-10-05T12:28:08.379Z,5.43
2022-10-05T12:31:14.925Z,3.67
2022-10-05T12:34:25.161Z,2.58
2022-10-05T12:37:29.923Z,4.28
2022-10-05T12:40:15.225Z,2.33
2022-10-05T12:42:59.629Z,3.40
2022-10-05T12:45:56.338Z,4.30
2022-10-05T12:49:34.202Z,5.25
2022-10-05T12:52:37.268Z,6.57
2022-10-05T12:55:21.705Z,2.78
2022-10-05T12:58:06.609Z,1.85
2022-10-05T13:00:53.041Z,1.70
2022-10-05T13:03:40.081Z,2.42
2022-10-05T13:06:29.946Z,2.22
2022-10-05T13:09:34.770Z,2.90
2022-10-05T13:12:23.779Z,6.95
2022-10-05T13:15:31.466Z,1.38
2022-10-05T13:18:44.284Z,2.95
2022-10-05T13:21:47.242Z,2.40
2022-10-05T13:25:03.925Z,6.38
2022-10-05T13:27:52.332Z,4.25
2022-10-05T13:30:25.039Z,3.72
2022-10-05T13:33:13.873Z,1.92
2022-10-05T13:36:11.526Z,3.90
2022-10-05T13:39:05.563Z,2.30
2022-10-05T13:41:57.194Z,2.58
2022-10-05T13:44:43.390Z,1.38
2022-10-05T13:47:57.975Z,5.10
2022-10-05T13:50:34.951Z,4.40
2022-10-05T13:53:37.107Z,2.50
2022-10-05T13:56:28.835Z,4.57
2022-10-05T13:59:35.204Z,2.20
2022-10-05T14:02:12.539Z,4.78
2022-10-05T14:05:02.090Z,2.72
2022-10-05T14:07:50.959Z,4.45
2022-10-05T14:10:38.195Z,5.03
2022-10-05T14:13:44.137Z,4.47
2022-10-05T14:16:16.538Z,3.35
2022-10-05T14:19:22.832Z,2.55
2022-10-05T14:22:24.932Z,2.97
2022-10-05T14:25:09.608Z,4.28
2022-10-05T14:28:25.063Z,5.78
2022-10-05T14:31:03.572Z,3.30
2022-10-05T14:33:36.853Z,6.05
2022-10-05T14:36:22.433Z,2.35
2022-10-05T14:39:00.816Z,8.23
2022-10-05T14:41:39.049Z,3.65
2022-10-05T14:44:23.471Z,7.57
2022-10-05T14:47:11.962Z,7.65
2022-10-05T14:50:13.944Z,3.58
2022-10-05T14:53:17.219Z,14.07
2022-10-05T14:56:17.097Z,8.00
2022-10-05T14:59:28.101Z,11.43
2022-10-05T15:02:53.804Z,12.90
2022-10-05T15:05:41.368Z,4.22
2022-10-05T15:08:41.398Z,6.07
2022-10-05T15:11:37.435Z,9.30
2022-10-05T15:14:32.768Z,8.75
2022-10-05T15:17:20.219Z,2.45
2022-10-05T15:20:06.155Z,6.85
2022-10-05T15:23:11.269Z,3.70
2022-10-05T15:26:29.291Z,1.83
2022-10-05T15:29:38.160Z,2.25
2022-10-05T15:32:42.033Z,3.75
2022-10-05T15:35:40.891Z,1.92
2022-10-05T15:38:21.261Z,4.55
2022-10-05T15:41:15.905Z,4.45
2022-10-05T15:44:13.996Z,3.88
2022-10-05T15:47:10.354Z,2.40
2022-10-05T15:49:51.479Z,4.25
2022-10-05T15:52:43.767Z,3.25
2022-10-05T15:55:38.700Z,2.47
2022-10-05T15:59:02.400Z,4.45
2022-10-05T16:01:34.862Z,2.75
2022-10-05T16:04:30.112Z,4.53
2022-10-05T16:07:22.092Z,3.10
2022-10-05T16:10:17.998Z,4.78
2022-10-05T16:13:10.060Z,4.28
2022-10-05T16:15:57.053Z,1.58
2022-10-05T16:19:04.310Z,6.07
2022-10-05T16:21:58.178Z,1.88
2022-10-05T16:24:49.228Z,2.50
2022-10-05T16:28:17.738Z,3.22
2022-10-05T16:31:03.764Z,4.78
2022-10-05T16:34:07.924Z,6.47
2022-10-05T16:37:09.797Z,2.88
2022-10-05T16:39:58.797Z,6.22
2022-10-05T16:43:05.523Z,2.20
2022-10-05T16:46:02.501Z,3.78
2022-10-05T16:49:16.524Z,2.30
2022-10-05T16:52:04.970Z,5.00
2022-10-05T16:57:31.050Z,2.75
2022-10-05T17:00:25.109Z,2.42
2022-10-05T17:03:21.750Z,3.20
2022-10-05T17:06:42.632Z,2.90
2022-10-05T17:09:39.158Z,4.22
2022-10-05T17:12:53.746Z,5.53
2022-10-05T17:16:04.163Z,2.75
2022-10-05T17:19:32.733Z,2.33
2022-10-05T17:22:37.851Z,2.35
2022-10-05T17:25:45.936Z,5.22
2022-10-05T17:28:18.870Z,2.42
2022-10-05T17:31:22.232Z,4.07
2022-10-05T17:34:26.396Z,2.10
2022-10-05T17:37:35.082Z,4.43
2022-10-05T17:40:29.601Z,3.90
2022-10-05T17:43:14.222Z,2.30
2022-10-05T17:45:46.652Z,3.88
2022-10-05T17:48:47.225Z,4.55
2022-10-05T17:51:47.738Z,4.13
2022-10-05T17:55:10.877Z,2.72
2022-10-05T17:57:43.415Z,2.47
2022-10-05T18:01:04.387Z,2.97
2022-10-05T18:03:51.542Z,2.15
2022-10-05T18:06:28.350Z,2.50
2022-10-05T18:09:36.151Z,4.03
2022-10-05T18:12:28.249Z,3.22
2022-10-05T18:15:06.842Z,2.80
2022-10-05T18:17:46.527Z,3.25
2022-10-05T18:20:27.695Z,2.97
2022-10-05T18:23:03.520Z,3.97
2022-10-05T18:25:55.989Z,3.95
2022-10-05T18:29:14.133Z,5.57
2022-10-05T18:32:01.261Z,3.15
2022-10-05T18:34:50.763Z,3.72
2022-10-05T18:37:54.742Z,3.13
2022-10-05T18:40:37.576Z,3.03
2022-10-05T18:43:24.326Z,8.15
2022-10-05T18:46:17.088Z,4.10
2022-10-05T18:49:04.352Z,4.55
2022-10-05T18:52:06.798Z,3.55
2022-10-05T18:55:02.403Z,3.38
2022-10-05T18:58:09.414Z,2.15
2022-10-05T19:01:19.576Z,3.70
2022-10-05T19:04:18.889Z,3.42
2022-10-05T19:07:04.776Z,3.65
2022-10-05T19:10:37.959Z,3.03
2022-10-05T19:13:46.967Z,7.32
2022-10-05T19:17:06.082Z,5.75
2022-10-05T19:20:34.017Z,2.88
2022-10-05T19:23:26.171Z,5.72
2022-10-05T19:26:21.820Z,3.80
2022-10-05T19:29:35.153Z,4.22
2022-10-05T19:32:26.988Z,6.85
2022-10-05T19:35:25.284Z,4.25
2022-10-05T19:38:44.615Z,5.25
2022-10-05T19:41:37.886Z,4.15
2022-10-05T19:45:03.786Z,4.80
2022-10-05T19:47:47.353Z,5.82
2022-10-05T19:50:37.575Z,4.57
2022-10-05T19:53:24.787Z,5.30
2022-10-05T19:56:22.758Z,3.55
2022-10-05T19:58:57.481Z,2.67
2022-10-05T20:01:41.764Z,2.42
2022-10-05T20:04:43.283Z,2.28
2022-10-05T20:07:23.012Z,3.17
2022-10-05T20:09:58.179Z,2.85
2022-10-05T20:12:58.320Z,2.15
2022-10-05T20:15:52.518Z,6.93
2022-10-05T20:19:01.930Z,2.80
2022-10-05T20:21:50.980Z,2.72
2022-10-05T20:24:29.651Z,4.75
2022-10-05T20:27:06.163Z,3.33
2022-10-05T20:29:45.055Z,2.42
2022-10-05T20:32:18.162Z,2.58
2022-10-05T20:34:51.112Z,3.17
2022-10-05T20:37:24.859Z,2.47
2022-10-05T20:39:57.347Z,3.17
2022-10-05T20:42:30.070Z,3.72
2022-10-05T20:45:03.381Z,2.90
2022-10-05T20:47:37.609Z,2.88
2022-10-05T20:50:11.050Z,5.30
2022-10-05T20:52:43.765Z,4.70
2022-10-05T20:55:16.319Z,4.85
2022-10-05T20:57:48.974Z,4.50
2022-10-05T21:00:21.565Z,4.57
2022-10-05T21:02:54.098Z,3.53
2022-10-05T21:05:26.691Z,3.97
2022-10-05T21:07:59.240Z,5.57
2022-10-05T21:10:31.751Z,5.50
2022-10-05T21:13:04.842Z,3.67
2022-10-05T21:15:38.271Z,3.33
2022-10-05T21:18:10.741Z,2.65
2022-10-05T21:20:46.501Z,2.13
2022-10-05T21:23:19.004Z,3.13
2022-10-05T21:25:51.477Z,3.00
2022-10-05T21:28:24.232Z,6.25
2022-10-05T21:30:56.964Z,4.03
2022-10-05T21:33:29.839Z,3.00
2022-10-05T21:36:03.117Z,2.65
2022-10-05T21:38:35.744Z,1.98
2022-10-05T21:41:08.626Z,2.05
2022-10-05T21:43:41.637Z,2.42
2022-10-05T21:46:22.827Z,4.88
2022-10-05T21:48:55.900Z,2.33
2022-10-05T21:51:28.479Z,1.10
2022-10-05T21:54:12.073Z,3.05
2022-10-05T21:56:55.520Z,2.33
2022-10-05T21:59:34.172Z,1.27
2022-10-05T22:02:07.283Z,2.45
2022-10-05T22:04:39.887Z,1.65
2022-10-05T22:07:20.324Z,1.88
2022-10-05T22:09:52.914Z,6.32
2022-10-05T22:12:26.353Z,1.58
2022-10-05T22:14:58.969Z,2.45
2022-10-05T22:17:32.092Z,3.42
2022-10-05T22:20:05.181Z,2.55
2022-10-05T22:22:37.715Z,4.45
2022-10-05T22:25:10.207Z,3.70
2022-10-05T22:27:42.980Z,0.65
2022-10-05T22:30:15.758Z,3.22
2022-10-05T22:32:48.514Z,1.90
2022-10-05T22:35:20.987Z,2.30
2022-10-05T22:37:53.497Z,4.47
2022-10-05T22:40:26.091Z,3.35
2022-10-05T22:42:58.603Z,3.67
2022-10-05T22:45:32.740Z,4.20
2022-10-05T22:48:06.036Z,4.68
2022-10-05T22:50:38.545Z,2.53
2022-10-05T22:53:12.448Z,8.60
2022-10-05T22:55:45.028Z,6.60
2022-10-05T22:58:17.542Z,1.77
2022-10-05T23:00:58.703Z,4.07
2022-10-05T23:03:32.460Z,7.28
2022-10-05T23:06:11.358Z,3.95
2022-10-05T23:08:44.822Z,8.45
2022-10-05T23:11:25.635Z,2.35
2022-10-05T23:13:58.576Z,3.80
2022-10-05T23:16:31.204Z,2.30
2022-10-05T23:19:03.750Z,3.90
2022-10-05T23:21:36.409Z,5.20
2022-10-05T23:24:08.906Z,7.15
2022-10-05T23:26:41.462Z,2.15
2022-10-05T23:29:13.985Z,5.80
2022-10-05T23:31:46.573Z,4.07
2022-10-05T23:34:19.098Z,4.63
2022-10-05T23:36:51.581Z,5.63
2022-10-05T23:39:24.093Z,3.67
2022-10-05T23:41:56.621Z,3.97
2022-10-05T23:44:29.125Z,2.95
2022-10-05T23:47:01.612Z,6.00
2022-10-05T23:49:34.156Z,3.97
2022-10-05T23:52:06.669Z,4.68
2022-10-05T23:54:39.174Z,7.85
2022-10-05T23:57:17.728Z,7.53
2022-10-05T23:59:50.358Z,2.50
